createdAt,value
2023-02-15T00:00:12.810Z,98051.03
2023-02-15T00:02:40.875Z,98048.78
2023-02-15T00:05:10.631Z,98046.94
2023-02-15T00:07:38.412Z,98033.13
2023-02-15T00:10:07.261Z,98060.53
2023-02-15T00:12:34.805Z,98053.94
2023-02-15T00:15:02.540Z,98052.84
2023-02-15T00:17:31.907Z,98051.38
2023-02-15T00:19:59.515Z,98055.53
2023-02-15T00:22:27.296Z,98043.03
2023-02-15T00:24:54.734Z,98053.94
2023-02-15T00:27:22.325Z,98053.56
2023-02-15T00:29:49.952Z,98043.94
2023-02-15T00:32:17.522Z,98063.63
2023-02-15T00:34:45.357Z,98059.06
2023-02-15T00:37:13.006Z,98050.56
2023-02-15T00:39:40.559Z,98049.41
2023-02-15T00:42:08.974Z,98058.41
2023-02-15T00:44:36.658Z,98040.13
2023-02-15T00:47:04.208Z,98048.06
2023-02-15T00:49:31.781Z,98039.88
2023-02-15T00:51:59.313Z,98046.25
2023-02-15T00:54:26.871Z,98053.06
2023-02-15T00:56:54.451Z,98054.88
2023-02-15T00:59:22.229Z,98054.22
2023-02-15T01:01:49.777Z,98048.28
2023-02-15T01:04:18.214Z,98043.53
2023-02-15T01:06:45.855Z,98041.16
2023-02-15T01:09:14.987Z,98048.41
2023-02-15T01:11:42.618Z,98047.06
2023-02-15T01:14:10.207Z,98050.69
2023-02-15T01:16:39.811Z,98049.66
2023-02-15T01:19:07.638Z,98050.88
2023-02-15T01:21:35.817Z,98043.00
2023-02-15T01:24:04.102Z,98047.22
2023-02-15T01:26:31.858Z,98058.16
2023-02-15T01:28:59.856Z,98047.59
2023-02-15T01:31:27.806Z,98049.28
2023-02-15T01:33:55.565Z,98055.06
2023-02-15T01:36:23.332Z,98056.19
2023-02-15T01:38:52.801Z,98052.28
2023-02-15T01:41:27.514Z,98055.75
2023-02-15T01:44:00.795Z,98045.59
2023-02-15T01:46:42.161Z,98048.59
2023-02-15T01:49:16.659Z,98044.41
2023-02-15T01:51:47.273Z,98039.72
2023-02-15T01:54:28.975Z,98049.22
2023-02-15T01:57:03.689Z,98050.44
2023-02-15T01:59:33.283Z,98042.56
2023-02-15T02:02:02.451Z,98047.69
2023-02-15T02:04:35.449Z,98056.69
2023-02-15T02:07:05.158Z,98068.72
2023-02-15T02:09:33.567Z,98060.41
2023-02-15T02:12:02.468Z,98059.19
2023-02-15T02:14:30.569Z,98055.13
2023-02-15T02:17:23.621Z,98062.69
2023-02-15T02:20:22.126Z,98071.66
2023-02-15T02:23:16.284Z,98069.16
2023-02-15T02:26:02.390Z,98061.66
2023-02-15T02:28:42.316Z,98069.34
2023-02-15T02:31:32.772Z,98072.09
2023-02-15T02:34:28.461Z,98089.75
2023-02-15T02:37:19.699Z,98076.00
2023-02-15T02:39:47.308Z,98074.78
2023-02-15T02:42:39.350Z,98071.25
2023-02-15T02:45:17.812Z,98093.69
2023-02-15T02:47:50.399Z,98087.03
2023-02-15T02:50:23.611Z,98078.13
2023-02-15T02:52:54.215Z,98088.84
2023-02-15T02:55:34.221Z,98089.59
2023-02-15T02:58:26.432Z,98091.28
2023-02-15T03:00:56.515Z,98087.78
2023-02-15T03:03:29.620Z,98093.00
2023-02-15T03:06:01.944Z,98096.72
2023-02-15T03:08:39.625Z,98093.16
2023-02-15T03:11:07.940Z,98093.16
2023-02-15T03:13:36.829Z,98087.34
2023-02-15T03:16:26.508Z,98096.84
2023-02-15T03:19:01.844Z,98086.91
2023-02-15T03:21:40.341Z,98079.09
2023-02-15T03:24:16.254Z,98091.69
2023-02-15T03:26:49.624Z,98085.50
2023-02-15T03:29:19.858Z,98093.72
2023-02-15T03:31:56.366Z,98074.97
2023-02-15T03:34:24.170Z,98086.41
2023-02-15T03:37:08.289Z,98075.41
2023-02-15T03:39:35.832Z,98094.38
2023-02-15T03:42:19.064Z,98086.06
2023-02-15T03:44:53.012Z,98089.97
2023-02-15T03:47:30.727Z,98092.28
2023-02-15T03:50:04.976Z,98097.69
2023-02-15T03:52:35.915Z,98095.53
2023-02-15T03:55:03.983Z,98100.94
2023-02-15T03:57:50.067Z,98096.88
2023-02-15T04:00:40.863Z,98100.94
2023-02-15T04:03:24.182Z,98100.38
2023-02-15T04:05:52.003Z,98104.38
2023-02-15T04:08:19.565Z,98100.72
2023-02-15T04:10:57.452Z,98108.47
2023-02-15T04:13:33.224Z,98102.72
2023-02-15T04:16:08.098Z,98121.16
2023-02-15T04:19:03.311Z,98139.91
2023-02-15T04:21:50.090Z,98132.53
2023-02-15T04:24:36.918Z,98129.03
2023-02-15T04:27:06.007Z,98124.94
2023-02-15T04:29:33.794Z,98125.88
2023-02-15T04:32:03.181Z,98141.31
2023-02-15T04:34:30.779Z,98129.75
2023-02-15T04:36:58.298Z,98126.00
2023-02-15T04:39:25.860Z,98124.13
2023-02-15T04:41:53.626Z,98122.91
2023-02-15T04:44:21.229Z,98142.78
2023-02-15T04:46:48.918Z,98131.38
2023-02-15T04:49:16.521Z,98128.63
2023-02-15T04:51:44.142Z,98127.09
2023-02-15T04:54:11.631Z,98131.31
2023-02-15T04:56:40.239Z,98134.19
2023-02-15T04:59:07.803Z,98131.56
2023-02-15T05:01:35.426Z,98142.88
2023-02-15T05:04:03.013Z,98136.66
2023-02-15T05:06:30.871Z,98146.88
2023-02-15T05:09:00.547Z,98139.22
2023-02-15T05:11:28.350Z,98138.91
2023-02-15T05:13:56.105Z,98136.94
2023-02-15T05:16:23.762Z,98138.56
2023-02-15T05:18:51.383Z,98146.66
2023-02-15T05:21:18.912Z,98149.31
2023-02-15T05:23:46.590Z,98159.13
2023-02-15T05:26:36.257Z,98148.66
2023-02-15T05:29:04.310Z,98151.25
2023-02-15T05:31:33.283Z,98153.63
2023-02-15T05:34:01.174Z,98150.72
2023-02-15T05:36:30.185Z,98158.09
2023-02-15T05:38:57.805Z,98154.81
2023-02-15T05:41:26.862Z,98166.84
2023-02-15T05:43:57.173Z,98173.94
2023-02-15T05:46:24.827Z,98165.00
2023-02-15T05:48:52.467Z,98155.19
2023-02-15T05:51:20.022Z,98155.47
2023-02-15T05:53:47.565Z,98163.75
2023-02-15T05:56:15.136Z,98170.94
2023-02-15T05:58:43.711Z,98171.41
2023-02-15T06:01:16.714Z,98174.63
2023-02-15T06:03:45.022Z,98182.94
2023-02-15T06:06:12.765Z,98179.88
2023-02-15T06:08:40.678Z,98180.50
2023-02-15T06:11:08.596Z,98174.41
2023-02-15T06:13:38.760Z,98177.75
2023-02-15T06:16:07.819Z,98167.81
2023-02-15T06:18:35.571Z,98169.91
2023-02-15T06:21:03.145Z,98169.44
2023-02-15T06:23:30.726Z,98168.59
2023-02-15T06:25:58.375Z,98172.59
2023-02-15T06:28:26.914Z,98177.44
2023-02-15T06:30:54.580Z,98173.94
2023-02-15T06:33:22.886Z,98189.81
2023-02-15T06:35:50.437Z,98174.13
2023-02-15T06:38:18.896Z,98180.75
2023-02-15T06:40:46.415Z,98188.97
2023-02-15T06:43:13.930Z,98175.97
2023-02-15T06:45:42.835Z,98183.00
2023-02-15T06:48:11.042Z,98165.03
2023-02-15T06:50:38.725Z,98168.09
2023-02-15T06:53:06.392Z,98178.75
2023-02-15T06:55:34.194Z,98176.28
2023-02-15T06:58:01.896Z,98180.50
2023-02-15T07:00:29.444Z,98172.38
2023-02-15T07:02:59.084Z,98143.31
2023-02-15T07:05:32.516Z,98177.63
2023-02-15T07:08:00.932Z,98178.97
2023-02-15T07:10:29.178Z,98191.69
2023-02-15T07:12:57.779Z,98190.50
2023-02-15T07:15:25.744Z,98192.69
2023-02-15T07:17:53.331Z,98198.34
2023-02-15T07:20:23.076Z,98181.31
2023-02-15T07:22:51.500Z,98204.81
2023-02-15T07:25:19.690Z,98198.19
2023-02-15T07:27:47.399Z,98186.53
2023-02-15T07:30:17.440Z,98196.56
2023-02-15T07:33:05.579Z,98182.91
2023-02-15T07:35:34.738Z,98183.25
2023-02-15T07:38:02.776Z,98184.06
2023-02-15T07:40:30.335Z,98197.22
2023-02-15T07:43:00.448Z,98200.81
2023-02-15T07:45:28.368Z,98197.00
2023-02-15T07:47:55.936Z,98192.16
2023-02-15T07:50:23.590Z,98184.13
2023-02-15T07:52:51.201Z,98184.25
2023-02-15T07:55:19.858Z,98183.78
2023-02-15T07:57:49.257Z,98195.81
2023-02-15T08:00:26.117Z,98200.44
2023-02-15T08:03:14.871Z,98187.84
2023-02-15T08:05:45.019Z,98192.13
2023-02-15T08:08:31.573Z,98184.13
2023-02-15T08:11:38.765Z,98172.50
2023-02-15T08:14:13.932Z,98191.09
2023-02-15T08:17:00.901Z,98184.88
2023-02-15T08:19:36.957Z,98181.34
2023-02-15T08:22:07.180Z,98150.25
2023-02-15T08:24:38.248Z,98187.69
2023-02-15T08:27:07.434Z,98177.69
2023-02-15T08:29:36.965Z,98192.19
2023-02-15T08:32:10.724Z,98196.31
2023-02-15T08:34:43.124Z,98189.19
2023-02-15T08:37:10.918Z,98188.69
2023-02-15T08:39:38.646Z,98192.13
2023-02-15T08:42:06.299Z,98191.06
2023-02-15T08:44:33.924Z,98196.34
2023-02-15T08:47:05.212Z,98188.94
2023-02-15T08:49:33.409Z,98206.06
2023-02-15T08:52:01.069Z,98193.91
2023-02-15T08:54:28.751Z,98204.19
2023-02-15T08:56:56.420Z,98205.16
2023-02-15T08:59:24.532Z,98203.63
2023-02-15T09:01:54.418Z,98206.78
2023-02-15T09:04:23.864Z,98197.97
2023-02-15T09:06:52.385Z,98190.28
2023-02-15T09:09:21.381Z,98201.19
2023-02-15T09:11:54.127Z,98204.97
2023-02-15T09:14:26.376Z,98207.84
2023-02-15T09:16:54.579Z,98196.16
2023-02-15T09:19:24.086Z,98206.03
2023-02-15T09:21:51.739Z,98202.50
2023-02-15T09:24:19.908Z,98204.06
2023-02-15T09:26:49.521Z,98211.41
2023-02-15T09:29:19.036Z,98212.75
2023-02-15T09:31:50.168Z,98212.84
2023-02-15T09:34:20.812Z,98200.72
2023-02-15T09:36:49.246Z,98212.06
2023-02-15T09:39:20.199Z,98203.88
2023-02-15T09:41:54.971Z,98212.59
2023-02-15T09:44:28.544Z,98207.16
2023-02-15T09:47:14.764Z,98208.16
2023-02-15T09:49:59.615Z,98209.13
2023-02-15T09:52:30.179Z,98215.50
2023-02-15T09:55:26.818Z,98212.41
2023-02-15T09:58:00.310Z,98195.91
2023-02-15T10:00:35.737Z,98196.75
2023-02-15T10:03:13.247Z,98189.88
2023-02-15T10:06:07.153Z,98202.06
2023-02-15T10:09:04.559Z,98206.31
2023-02-15T10:11:53.917Z,98201.63
2023-02-15T10:14:43.773Z,98201.38
2023-02-15T10:17:14.369Z,98203.31
2023-02-15T10:19:59.089Z,98200.56
2023-02-15T10:22:43.622Z,98206.66
2023-02-15T10:25:22.317Z,98209.31
2023-02-15T10:27:51.671Z,98217.50
2023-02-15T10:30:49.232Z,98217.16
2023-02-15T10:33:32.009Z,98229.91
2023-02-15T10:36:21.621Z,98230.59
2023-02-15T10:39:38.814Z,98228.16
2023-02-15T10:42:22.482Z,98225.66
2023-02-15T10:45:28.355Z,98223.38
2023-02-15T10:48:32.907Z,98231.59
2023-02-15T10:51:06.840Z,98231.94
2023-02-15T10:54:01.768Z,98231.06
2023-02-15T10:56:47.970Z,98235.31
2023-02-15T10:59:24.347Z,98239.41
2023-02-15T11:02:03.932Z,98234.03
2023-02-15T11:05:03.966Z,98244.13
2023-02-15T11:07:39.362Z,98254.91
2023-02-15T11:10:26.244Z,98261.75
2023-02-15T11:12:56.678Z,98274.50
2023-02-15T11:15:49.680Z,98260.09
2023-02-15T11:18:23.194Z,98249.50
2023-02-15T11:21:05.369Z,98258.63
2023-02-15T11:23:36.837Z,98264.66
2023-02-15T11:26:10.906Z,98255.09
2023-02-15T11:28:52.004Z,98251.16
2023-02-15T11:31:24.026Z,98248.47
2023-02-15T11:34:07.703Z,98237.13
2023-02-15T11:36:40.593Z,98247.38
2023-02-15T11:39:17.731Z,98259.28
2023-02-15T11:41:53.415Z,98265.56
2023-02-15T11:44:27.663Z,98256.75
2023-02-15T11:46:55.285Z,98264.97
2023-02-15T11:49:36.446Z,98269.00
2023-02-15T11:52:08.197Z,98266.81
2023-02-15T11:54:38.065Z,98280.22
2023-02-15T11:57:17.728Z,98278.75
2023-02-15T11:59:54.513Z,98289.53
2023-02-15T12:02:23.966Z,98294.38
2023-02-15T12:05:00.222Z,98293.13
2023-02-15T12:07:43.434Z,98293.59
2023-02-15T12:10:30.616Z,98313.06
2023-02-15T12:13:17.612Z,98325.72
2023-02-15T12:15:52.357Z,98317.88
2023-02-15T12:18:37.450Z,98324.34
2023-02-15T12:21:17.293Z,98318.19
2023-02-15T12:23:57.886Z,98309.78
2023-02-15T12:26:30.889Z,98308.28
2023-02-15T12:29:03.537Z,98312.63
2023-02-15T12:31:43.806Z,98308.75
2023-02-15T12:34:20.723Z,98316.22
2023-02-15T12:36:51.979Z,98326.31
2023-02-15T12:39:23.449Z,98307.47
2023-02-15T12:42:18.366Z,98312.75
2023-02-15T12:45:20.987Z,98307.16
2023-02-15T12:48:11.363Z,98311.03
2023-02-15T12:50:39.739Z,98288.13
2023-02-15T12:53:21.368Z,98318.88
2023-02-15T12:55:55.095Z,98304.34
2023-02-15T12:58:26.739Z,98306.97
2023-02-15T13:01:25.896Z,98310.66
2023-02-15T13:04:15.249Z,98302.84
2023-02-15T13:06:50.301Z,98335.72
2023-02-15T13:09:22.211Z,98329.88
2023-02-15T13:11:50.174Z,98335.97
2023-02-15T13:14:33.325Z,98337.16
2023-02-15T13:17:05.188Z,98339.81
2023-02-15T13:19:47.933Z,98358.09
2023-02-15T13:22:23.416Z,98342.72
2023-02-15T13:24:58.821Z,98364.03
2023-02-15T13:27:36.786Z,98372.66
2023-02-15T13:30:16.398Z,98383.59
2023-02-15T13:32:44.238Z,98376.81
2023-02-15T13:35:17.598Z,98372.78
2023-02-15T13:38:31.570Z,98376.06
2023-02-15T13:41:10.913Z,98377.50
2023-02-15T13:43:48.926Z,98377.00
2023-02-15T13:46:19.508Z,98389.19
2023-02-15T13:49:18.050Z,98389.09
2023-02-15T13:51:58.176Z,98391.28
2023-02-15T13:54:37.599Z,98388.31
2023-02-15T13:57:23.321Z,98398.59
2023-02-15T14:00:10.706Z,98413.22
2023-02-15T14:03:13.886Z,98404.34
2023-02-15T14:06:18.888Z,98409.91
2023-02-15T14:08:49.484Z,98395.34
2023-02-15T14:11:22.962Z,98365.09
2023-02-15T14:14:20.485Z,98408.09
2023-02-15T14:17:09.517Z,98393.44
2023-02-15T14:19:51.171Z,98386.03
2023-02-15T14:22:30.288Z,98401.19
2023-02-15T14:25:29.513Z,98397.34
2023-02-15T14:28:10.181Z,98409.50
2023-02-15T14:30:45.056Z,98400.88
2023-02-15T14:33:15.782Z,98404.09
2023-02-15T14:35:44.376Z,98410.75
2023-02-15T14:38:46.543Z,98421.00
2023-02-15T14:41:20.217Z,98421.09
2023-02-15T14:43:56.769Z,98417.28
2023-02-15T14:46:33.758Z,98438.78
2023-02-15T14:49:19.512Z,98427.72
2023-02-15T14:51:51.363Z,98432.75
2023-02-15T14:54:18.855Z,98438.69
2023-02-15T14:56:48.543Z,98415.34
2023-02-15T14:59:22.403Z,98448.16
2023-02-15T15:02:05.704Z,98433.63
2023-02-15T15:05:03.822Z,98434.56
2023-02-15T15:07:54.399Z,98460.16
2023-02-15T15:10:42.514Z,98428.25
2023-02-15T15:13:40.462Z,98446.41
2023-02-15T15:16:29.826Z,98441.44
2023-02-15T15:18:58.831Z,98453.03
2023-02-15T15:21:48.121Z,98452.53
2023-02-15T15:24:40.742Z,98441.34
2023-02-15T15:27:40.420Z,98472.81
2023-02-15T15:30:19.735Z,98458.66
2023-02-15T15:33:37.085Z,98458.25
2023-02-15T15:36:19.974Z,98465.28
2023-02-15T15:39:17.259Z,98466.88
2023-02-15T15:42:03.093Z,98476.31
2023-02-15T15:44:57.007Z,98474.72
2023-02-15T15:48:07.146Z,98478.72
2023-02-15T15:50:36.257Z,98453.53
2023-02-15T15:53:05.513Z,98475.53
2023-02-15T15:55:35.289Z,98479.34
2023-02-15T15:58:06.579Z,98472.94
2023-02-15T16:00:48.766Z,98474.91
2023-02-15T16:03:22.437Z,98476.53
2023-02-15T16:05:55.579Z,98478.94
2023-02-15T16:08:37.193Z,98479.94
2023-02-15T16:11:41.034Z,98475.34
2023-02-15T16:14:37.128Z,98475.91
2023-02-15T16:17:08.892Z,98484.16
2023-02-15T16:19:42.422Z,98478.13
2023-02-15T16:22:36.340Z,98490.16
2023-02-15T16:25:41.256Z,98485.16
2023-02-15T16:28:12.275Z,98493.16
2023-02-15T16:30:41.181Z,98482.75
2023-02-15T16:33:10.175Z,98496.34
2023-02-15T16:35:40.976Z,98488.97
2023-02-15T16:38:13.666Z,98484.56
2023-02-15T16:40:55.061Z,98491.78
2023-02-15T16:43:28.048Z,98476.72
2023-02-15T16:46:05.790Z,98508.75
2023-02-15T16:48:43.392Z,98502.75
2023-02-15T16:51:11.388Z,98505.78
2023-02-15T16:53:39.074Z,98500.56
2023-02-15T16:56:07.325Z,98511.38
2023-02-15T16:58:42.565Z,98508.97
2023-02-15T17:01:16.156Z,98470.34
2023-02-15T17:03:44.478Z,98514.97
2023-02-15T17:06:24.471Z,98505.97
2023-02-15T17:08:52.254Z,98505.16
2023-02-15T17:11:35.820Z,98516.75
2023-02-15T17:14:10.456Z,98521.38
2023-02-15T17:16:45.924Z,98499.34
2023-02-15T17:19:19.527Z,98519.00
2023-02-15T17:22:02.577Z,98519.59
2023-02-15T17:24:35.565Z,98519.78
2023-02-15T17:27:29.114Z,98525.56
2023-02-15T17:29:59.164Z,98503.56
2023-02-15T17:32:29.852Z,98492.75
2023-02-15T17:35:06.373Z,98510.09
2023-02-15T17:37:46.859Z,98508.94
2023-02-15T17:40:23.734Z,98515.13
2023-02-15T17:42:52.539Z,98517.13
2023-02-15T17:45:23.493Z,98516.34
2023-02-15T17:47:51.659Z,98513.94
2023-02-15T17:50:21.512Z,98506.78
2023-02-15T17:52:49.651Z,98511.78
2023-02-15T17:55:35.943Z,98518.38
2023-02-15T17:58:23.343Z,98510.56
2023-02-15T18:01:12.549Z,98517.78
2023-02-15T18:04:17.573Z,98506.34
2023-02-15T18:07:04.063Z,98501.56
2023-02-15T18:09:49.835Z,98512.56
2023-02-15T18:12:29.788Z,98503.94
2023-02-15T18:14:59.740Z,98516.97
2023-02-15T18:17:43.440Z,98512.78
2023-02-15T18:20:37.514Z,98517.38
2023-02-15T18:23:06.018Z,98491.34
2023-02-15T18:25:33.662Z,98529.81
2023-02-15T18:28:01.247Z,98529.81
2023-02-15T18:30:29.221Z,98521.78
2023-02-15T18:32:58.069Z,98533.38
2023-02-15T18:35:29.179Z,98541.81
2023-02-15T18:37:56.988Z,98547.22
2023-02-15T18:40:29.847Z,98537.81
2023-02-15T18:42:57.836Z,98536.56
2023-02-15T18:45:32.785Z,98547.38
2023-02-15T18:48:00.493Z,98547.56
2023-02-15T18:50:31.564Z,98553.31
2023-02-15T18:52:59.327Z,98558.34
2023-02-15T18:55:28.537Z,98554.41
2023-02-15T18:57:57.527Z,98552.66
2023-02-15T19:00:30.817Z,98565.84
2023-02-15T19:02:59.479Z,98574.59
2023-02-15T19:05:29.529Z,98565.19
2023-02-15T19:07:59.103Z,98571.16
2023-02-15T19:10:28.958Z,98567.91
2023-02-15T19:12:57.396Z,98571.44
2023-02-15T19:15:33.329Z,98573.94
2023-02-15T19:18:00.964Z,98573.00
2023-02-15T19:20:44.483Z,98564.59
2023-02-15T19:23:21.656Z,98566.59
2023-02-15T19:25:50.277Z,98591.19
2023-02-15T19:28:36.057Z,98575.94
2023-02-15T19:31:03.833Z,98573.19
2023-02-15T19:33:31.507Z,98581.00
2023-02-15T19:35:59.169Z,98593.34
2023-02-15T19:38:37.409Z,98580.41
2023-02-15T19:41:14.753Z,98577.00
2023-02-15T19:43:42.316Z,98589.38
2023-02-15T19:46:19.403Z,98587.50
2023-02-15T19:48:48.177Z,98585.91
2023-02-15T19:51:17.285Z,98596.16
2023-02-15T19:53:47.706Z,98589.75
2023-02-15T19:56:27.409Z,98581.19
2023-02-15T19:58:58.090Z,98601.75
2023-02-15T20:01:25.843Z,98596.97
2023-02-15T20:03:53.763Z,98603.81
2023-02-15T20:06:21.460Z,98606.41
2023-02-15T20:08:49.203Z,98607.78
2023-02-15T20:11:16.928Z,98607.94
2023-02-15T20:13:44.572Z,98608.13
2023-02-15T20:16:12.288Z,98610.41
2023-02-15T20:18:39.866Z,98601.72
2023-02-15T20:21:14.617Z,98604.16
2023-02-15T20:23:42.478Z,98615.38
2023-02-15T20:26:18.639Z,98599.38
2023-02-15T20:28:47.090Z,98619.28
2023-02-15T20:31:20.788Z,98617.66
2023-02-15T20:33:52.174Z,98614.88
2023-02-15T20:36:21.837Z,98611.59
2023-02-15T20:38:49.857Z,98607.75
2023-02-15T20:41:39.154Z,98623.81
2023-02-15T20:44:26.172Z,98618.25
2023-02-15T20:46:56.542Z,98621.25
2023-02-15T20:49:26.092Z,98615.66
2023-02-15T20:51:54.990Z,98631.22
2023-02-15T20:54:29.320Z,98617.78
2023-02-15T20:56:56.995Z,98630.59
2023-02-15T20:59:29.351Z,98621.25
2023-02-15T21:02:17.125Z,98636.00
2023-02-15T21:04:45.090Z,98635.66
2023-02-15T21:07:22.621Z,98638.41
2023-02-15T21:09:50.289Z,98641.63
2023-02-15T21:12:19.943Z,98647.69
2023-02-15T21:14:47.523Z,98651.72
2023-02-15T21:17:17.344Z,98641.88
2023-02-15T21:19:45.040Z,98643.25
2023-02-15T21:22:14.886Z,98650.13
2023-02-15T21:24:51.267Z,98652.34
2023-02-15T21:27:19.177Z,98645.34
2023-02-15T21:29:46.713Z,98646.53
2023-02-15T21:32:14.523Z,98648.31
2023-02-15T21:34:42.224Z,98655.09
2023-02-15T21:37:32.091Z,98654.50
2023-02-15T21:39:59.913Z,98649.09
2023-02-15T21:42:47.367Z,98650.53
2023-02-15T21:45:35.114Z,98654.94
2023-02-15T21:48:03.072Z,98662.97
2023-02-15T21:50:49.499Z,98663.22
2023-02-15T21:53:32.283Z,98655.22
2023-02-15T21:56:03.137Z,98655.81
2023-02-15T21:58:33.855Z,98659.03
2023-02-15T22:01:02.255Z,98662.25
2023-02-15T22:03:38.577Z,98659.25
2023-02-15T22:06:06.583Z,98667.88
2023-02-15T22:08:34.493Z,98663.66
2023-02-15T22:11:02.620Z,98661.44
2023-02-15T22:13:33.793Z,98667.44
2023-02-15T22:16:02.417Z,98665.44
2023-02-15T22:18:34.010Z,98668.44
2023-02-15T22:21:03.294Z,98674.81
2023-02-15T22:23:31.372Z,98667.41
2023-02-15T22:26:22.441Z,98686.31
2023-02-15T22:28:50.429Z,98685.91
2023-02-15T22:31:21.829Z,98697.94
2023-02-15T22:33:52.018Z,98685.09
2023-02-15T22:36:28.212Z,98693.13
2023-02-15T22:38:58.438Z,98690.31
2023-02-15T22:41:30.509Z,98692.34
2023-02-15T22:43:58.532Z,98688.91
2023-02-15T22:46:26.987Z,98695.13
2023-02-15T22:48:54.720Z,98686.13
2023-02-15T22:51:24.843Z,98684.31
2023-02-15T22:53:52.591Z,98689.53
2023-02-15T22:56:27.982Z,98695.13
2023-02-15T22:59:03.217Z,98695.31
2023-02-15T23:01:33.300Z,98700.34
2023-02-15T23:04:03.432Z,98693.13
2023-02-15T23:06:32.219Z,98699.94
2023-02-15T23:09:01.083Z,98700.34
2023-02-15T23:11:29.157Z,98703.56
2023-02-15T23:13:56.976Z,98705.97
2023-02-15T23:16:24.755Z,98709.56
2023-02-15T23:18:52.473Z,98709.97
2023-02-15T23:21:32.498Z,98711.56
2023-02-15T23:24:29.780Z,98715.59
2023-02-15T23:27:20.377Z,98714.78
2023-02-15T23:29:47.930Z,98722.41
2023-02-15T23:32:16.002Z,98711.38
2023-02-15T23:34:44.057Z,98724.03
2023-02-15T23:37:13.490Z,98717.78
2023-02-15T23:39:59.217Z,98722.34
2023-02-15T23:42:32.403Z,98729.97
2023-02-15T23:45:00.096Z,98725.97
2023-02-15T23:47:51.526Z,98719.94
2023-02-15T23:50:25.306Z,98709.94
2023-02-15T23:52:54.440Z,98719.34
2023-02-15T23:55:23.728Z,98724.13
2023-02-15T23:57:55.184Z,98725.38
